Time;durP1;ratioP1;P1;durP2;ratioP2;P2;SDS_P1;SDS_P2;PMS_P1;PMS_P2;Temp;Humidity;BMP_temperature;BMP_pressure;BME280_temperature;BME280_humidity;BME280_pressure;Samples;Min_cycle;Max_cycle;Signal;HPM_P1;HPM_P2
2022/11/15 00:00:50;;;;;;;16.37;9.03;;;;;;;42.20;34.27;101099.25;5096232;28;20423;-74
2022/11/15 00:03:18;;;;;;;15.27;8.20;;;;;;;42.22;34.57;101093.47;5113821;28;20424;-73
2022/11/15 00:05:44;;;;;;;16.13;7.93;;;;;;;42.28;34.52;101092.16;5096981;28;20933;-73
2022/11/15 00:08:10;;;;;;;13.27;7.53;;;;;;;42.31;34.11;101086.84;5096767;28;20911;-75
2022/11/15 00:10:37;;;;;;;16.60;8.50;;;;;;;42.22;33.96;101083.38;5096794;28;20590;-75
2022/11/15 00:13:13;;;;;;;28.13;7.80;;;;;;;42.00;34.06;101078.22;5094604;28;20515;-75
2022/11/15 00:15:40;;;;;;;9.60;7.07;;;;;;;42.06;34.31;101079.63;5093583;28;20435;-74
2022/11/15 00:18:12;;;;;;;18.60;8.00;;;;;;;42.01;34.51;101087.97;5093157;28;20804;-73
2022/11/15 00:20:39;;;;;;;18.57;8.27;;;;;;;42.03;34.55;101086.50;5059661;28;20493;-73
2022/11/15 00:23:05;;;;;;;21.07;8.90;;;;;;;42.27;34.08;101080.44;5095057;28;20405;-73
2022/11/15 00:25:32;;;;;;;16.40;8.53;;;;;;;41.85;34.89;101077.63;5092958;28;20539;-73
2022/11/15 00:27:59;;;;;;;16.13;8.30;;;;;;;42.07;34.74;101082.00;5092983;28;21013;-73
2022/11/15 00:30:26;;;;;;;21.23;9.10;;;;;;;41.89;35.00;101075.06;5076077;28;20460;-74
2022/11/15 00:32:52;;;;;;;17.97;9.17;;;;;;;41.99;34.60;101082.84;5094057;28;20782;-74
2022/11/15 00:35:19;;;;;;;11.67;7.87;;;;;;;41.96;34.60;101071.81;5076028;28;20990;-73
2022/11/15 00:37:46;;;;;;;12.00;7.33;;;;;;;41.64;35.25;101073.22;5075791;28;20423;-73
2022/11/15 00:40:15;;;;;;;13.70;8.17;;;;;;;41.66;34.99;101070.97;5092962;28;20714;-73
2022/11/15 00:42:41;;;;;;;18.57;8.30;;;;;;;41.55;34.89;101059.63;5076061;28;20445;-73
2022/11/15 00:45:08;;;;;;;17.93;7.23;;;;;;;41.70;34.97;101067.25;5092677;28;20420;-73
2022/11/15 00:47:34;;;;;;;16.53;7.43;;;;;;;41.72;34.79;101062.28;5092611;28;20425;-73
2022/11/15 00:50:00;;;;;;;11.60;6.60;;;;;;;41.82;34.78;101072.06;5092023;28;20537;-75
2022/11/15 00:52:26;;;;;;;12.30;6.33;;;;;;;41.56;35.66;101066.69;5091659;28;20230;-73
2022/11/15 00:54:52;;;;;;;13.30;7.77;;;;;;;41.64;35.32;101063.13;5092395;28;20425;-72
2022/11/15 00:57:18;;;;;;;15.53;8.67;;;;;;;41.73;35.42;101063.88;5092159;28;20424;-72
2022/11/15 00:59:44;;;;;;;12.50;8.27;;;;;;;41.79;35.27;101059.88;5092349;28;20595;-72
2022/11/15 01:02:10;;;;;;;22.33;7.83;;;;;;;41.83;35.26;101060.03;5092256;28;20167;-73
2022/11/15 01:04:36;;;;;;;19.07;7.97;;;;;;;41.64;35.30;101054.16;5092513;28;20471;-73
2022/11/15 01:07:02;;;;;;;11.73;8.43;;;;;;;41.61;35.30;101053.66;5092335;28;20523;-73
2022/11/15 01:09:28;;;;;;;9.93;7.80;;;;;;;41.76;35.23;101057.81;5092042;28;20463;-73
2022/11/15 01:11:54;;;;;;;15.20;7.00;;;;;;;41.79;35.07;101053.63;5092550;28;20488;-74
2022/11/15 01:14:20;;;;;;;11.80;7.60;;;;;;;41.99;35.09;101054.78;5093718;28;20401;-75
2022/11/15 01:16:46;;;;;;;17.67;8.23;;;;;;;41.96;34.74;101053.53;5093624;28;20435;-75
2022/11/15 01:19:12;;;;;;;12.23;7.50;;;;;;;41.99;34.76;101046.59;5093733;28;20835;-75
2022/11/15 01:21:38;;;;;;;27.60;8.90;;;;;;;41.89;34.97;101042.34;5092131;28;20184;-75
2022/11/15 01:24:04;;;;;;;16.07;9.43;;;;;;;41.99;35.35;101046.59;5091875;28;20799;-75
2022/11/15 01:26:30;;;;;;;22.40;9.87;;;;;;;42.08;35.00;101044.63;5091911;28;20807;-75
2022/11/15 01:28:56;;;;;;;15.03;8.93;;;;;;;42.26;34.67;101048.06;5091895;28;20425;-75
2022/11/15 01:31:22;;;;;;;17.33;9.50;;;;;;;42.10;34.73;101047.81;5091726;28;20453;-75
2022/11/15 01:33:48;;;;;;;14.40;7.33;;;;;;;42.01;34.38;101056.06;5091771;28;20413;-75
2022/11/15 01:36:18;;;;;;;14.13;6.00;;;;;;;42.04;34.77;101055.38;5091799;28;20409;-75
2022/11/15 01:38:44;;;;;;;10.83;7.30;;;;;;;42.17;34.70;101050.06;5091659;28;20790;-75
2022/11/15 01:41:19;;;;;;;15.80;8.73;;;;;;;42.03;34.86;101050.28;5093108;28;20440;-75
2022/11/15 01:43:51;;;;;;;13.53;6.73;;;;;;;42.10;34.30;101050.53;5093237;28;20413;-75
2022/11/15 01:46:29;;;;;;;13.60;7.90;;;;;;;41.80;35.04;101056.00;5074852;28;20440;-73
2022/11/15 01:48:59;;;;;;;13.73;7.73;;;;;;;41.88;35.25;101048.13;5093168;28;20922;-72
2022/11/15 01:51:29;;;;;;;19.53;9.67;;;;;;;42.21;34.61;101037.38;5091733;28;20472;-73
2022/11/15 01:54:00;;;;;;;13.20;7.33;;;;;;;42.05;34.57;101042.56;5091544;28;20420;-73
2022/11/15 01:56:30;;;;;;;21.77;6.90;;;;;;;42.11;34.75;101036.63;5091440;28;20840;-73
2022/11/15 01:58:58;;;;;;;10.90;7.27;;;;;;;42.01;34.70;101030.75;5075298;28;20508;-73
2022/11/15 02:01:26;;;;;;;17.47;9.10;;;;;;;41.99;35.01;101022.91;5092628;28;20905;-73
2022/11/15 02:03:58;;;;;;;11.07;7.10;;;;;;;42.19;34.80;101032.25;5091199;28;20413;-73
2022/11/15 02:06:24;;;;;;;29.23;9.33;;;;;;;42.09;34.64;101016.25;5091314;28;20781;-73
2022/11/15 02:08:50;;;;;;;19.70;9.33;;;;;;;42.17;34.48;101015.41;5090706;28;20450;-73
2022/11/15 02:11:16;;;;;;;13.23;7.43;;;;;;;42.06;34.79;101014.19;5091295;28;20475;-73
2022/11/15 02:13:43;;;;;;;14.23;6.60;;;;;;;41.89;34.97;101014.31;5091224;28;20783;-73
2022/11/15 02:16:35;;;;;;;20.03;9.27;;;;;;;41.63;35.64;101020.69;5091428;28;20405;-73
2022/11/15 02:19:29;;;;;;;15.00;7.50;;;;;;;42.02;35.16;101018.72;5074494;28;20417;-73
2022/11/15 02:22:32;;;;;;;13.93;6.67;;;;;;;42.04;34.60;101019.16;5091306;28;20496;-73
2022/11/15 02:25:13;;;;;;;15.50;9.93;;;;;;;41.93;35.08;101020.69;5091130;28;20765;-73
2022/11/15 02:28:24;;;;;;;23.60;8.70;;;;;;;41.96;35.06;101020.03;5091397;28;20455;-73
2022/11/15 02:31:02;;;;;;;12.93;8.83;;;;;;;41.94;35.06;101016.84;5091203;28;20569;-73
2022/11/15 02:33:47;;;;;;;15.70;8.30;;;;;;;41.85;35.33;101012.22;5091167;28;20530;-73
2022/11/15 02:36:20;;;;;;;20.73;8.87;;;;;;;41.91;35.19;101012.84;5092386;28;20437;-73
2022/11/15 02:38:52;;;;;;;15.87;7.50;;;;;;;41.99;35.51;101014.72;5092727;28;20500;-73
2022/11/15 02:41:29;;;;;;;23.33;8.73;;;;;;;41.98;35.39;101013.09;5092892;28;20401;-73
2022/11/15 02:44:05;;;;;;;18.43;7.43;;;;;;;42.01;35.28;101014.41;5075385;28;20428;-73
2022/11/15 02:49:37;;;;;;;18.90;12.07;;;;;;;41.55;36.16;101021.50;5094837;28;20473;-73
2022/11/15 02:52:03;;;;;;;20.67;11.60;;;;;;;41.79;36.02;101019.00;5094147;28;20463;-73
2022/11/15 02:54:32;;;;;;;16.23;10.83;;;;;;;41.73;35.59;101028.47;5094471;28;20503;-73
2022/11/15 02:57:05;;;;;;;20.20;13.40;;;;;;;41.65;36.36;101023.88;5094294;28;20867;-73
2022/11/15 03:00:01;;;;;;;21.07;13.13;;;;;;;41.26;36.41;101020.31;5094192;28;20417;-73
2022/11/15 03:02:30;;;;;;;24.97;16.47;;;;;;;41.48;36.59;101027.47;5094096;28;20905;-73
2022/11/15 03:05:14;;;;;;;27.80;15.20;;;;;;;41.22;36.46;101032.97;5112995;28;20403;-73
2022/11/15 03:07:54;;;;;;;21.70;13.93;;;;;;;41.20;36.74;101024.34;5103759;28;20451;-73
2022/11/15 03:10:32;;;;;;;19.53;13.47;;;;;;;41.39;36.80;101025.91;5114433;28;20410;-73
2022/11/15 03:13:20;;;;;;;19.90;14.17;;;;;;;40.84;37.19;101024.72;5114435;28;20438;-73
2022/11/15 03:16:11;;;;;;;19.80;14.37;;;;;;;41.06;36.74;101024.53;5096635;27;20414;-73
2022/11/15 03:18:41;;;;;;;18.03;11.93;;;;;;;40.99;37.21;101035.13;5118027;27;20510;-73
2022/11/15 03:21:11;;;;;;;13.70;10.30;;;;;;;40.87;37.31;101031.44;5118129;27;20960;-72
2022/11/15 03:23:39;;;;;;;19.53;12.67;;;;;;;41.19;36.80;101021.94;5117944;27;20425;-73
2022/11/15 03:26:10;;;;;;;19.83;12.37;;;;;;;40.60;37.78;101029.88;5117896;27;20419;-73
2022/11/15 03:28:59;;;;;;;18.03;12.90;;;;;;;40.85;37.63;101029.03;5117905;27;20450;-73
2022/11/15 03:31:48;;;;;;;17.83;11.43;;;;;;;40.59;37.82;101023.63;5136618;27;21022;-73
2022/11/15 03:34:31;;;;;;;16.90;12.20;;;;;;;40.88;37.37;101027.59;5136731;27;20398;-73
2022/11/15 03:36:57;;;;;;;34.87;13.30;;;;;;;40.64;37.45;101020.75;5117690;27;20419;-73
2022/11/15 03:39:24;;;;;;;20.37;13.73;;;;;;;40.92;37.40;101020.41;5117712;27;20427;-73
2022/11/15 03:42:16;;;;;;;20.80;12.37;;;;;;;40.80;37.27;101027.28;5116588;27;20472;-73
2022/11/15 03:45:05;;;;;;;19.23;12.80;;;;;;;40.83;37.67;101027.78;5097182;28;20774;-73
2022/11/15 03:47:43;;;;;;;16.40;12.20;;;;;;;40.76;37.70;101026.34;5097102;28;20944;-73
2022/11/15 03:50:28;;;;;;;24.07;11.73;;;;;;;40.95;37.20;101026.03;5093479;28;21012;-73
2022/11/15 03:52:56;;;;;;;24.20;14.90;;;;;;;40.78;37.40;101024.09;5096129;28;20428;-73
2022/11/15 03:55:22;;;;;;;26.97;12.97;;;;;;;40.24;38.00;101020.88;5095237;28;20909;-73
2022/11/15 03:57:52;;;;;;;18.57;14.30;;;;;;;40.03;38.69;101028.03;5093500;28;20436;-72
2022/11/15 04:00:18;;;;;;;16.80;12.17;;;;;;;40.52;38.29;101026.84;5093707;28;20421;-73
2022/11/15 04:02:44;;;;;;;19.67;13.33;;;;;;;40.48;38.32;101022.34;5076672;28;20424;-73
2022/11/15 04:05:10;;;;;;;21.90;13.23;;;;;;;40.19;38.11;101029.19;5093812;28;20524;-73
2022/11/15 04:07:37;;;;;;;19.50;13.40;;;;;;;40.72;37.51;101036.25;5093230;28;20938;-73
2022/11/15 04:10:03;;;;;;;25.60;14.00;;;;;;;40.59;37.29;101031.00;5093536;28;20837;-73
2022/11/15 04:12:34;;;;;;;18.73;14.73;;;;;;;40.78;37.02;101034.19;5093146;28;20974;-73
2022/11/15 04:15:09;;;;;;;14.97;10.87;;;;;;;40.54;37.52;101031.94;5093305;28;20425;-73
2022/11/15 04:17:42;;;;;;;20.53;14.03;;;;;;;40.57;37.63;101020.41;5092980;28;20448;-73
2022/11/15 04:25:49;;;;;;;27.50;15.20;;;;;;;40.61;37.97;101031.47;5093433;28;20384;-73
2022/11/15 04:28:15;;;;;;;21.83;15.87;;;;;;;40.85;37.05;101036.41;5076585;28;20429;-75
2022/11/15 04:30:41;;;;;;;20.30;15.10;;;;;;;40.46;37.82;101030.00;5093028;28;20525;-75
2022/11/15 04:33:07;;;;;;;24.80;16.20;;;;;;;40.33;38.30;101037.19;5092791;28;20524;-74
2022/11/15 04:35:34;;;;;;;21.50;14.20;;;;;;;40.61;37.88;101026.03;5094362;28;20444;-75
2022/11/15 04:38:01;;;;;;;20.47;14.97;;;;;;;40.29;37.92;101031.59;5094419;28;20405;-75
2022/11/15 04:40:27;;;;;;;24.97;16.20;;;;;;;40.48;37.98;101033.22;5075907;28;20421;-75
2022/11/15 04:42:53;;;;;;;25.13;16.80;;;;;;;40.78;36.98;101029.53;5094194;28;20601;-75
2022/11/15 04:45:19;;;;;;;27.40;17.13;;;;;;;40.69;37.24;101038.81;5094207;28;20401;-75
2022/11/15 04:47:45;;;;;;;23.40;18.97;;;;;;;40.18;38.09;101033.00;5092673;28;20425;-75
2022/11/15 04:50:13;;;;;;;31.00;20.83;;;;;;;40.36;38.33;101033.84;5100965;28;20469;-73
2022/11/15 04:52:49;;;;;;;34.20;20.93;;;;;;;40.10;38.35;101028.38;5096408;28;20882;-73
2022/11/15 04:55:15;;;;;;;30.90;21.83;;;;;;;40.14;38.82;101033.97;5079799;28;20415;-73
2022/11/15 04:57:41;;;;;;;25.50;18.27;;;;;;;40.36;38.12;101041.19;5114361;28;20450;-73
2022/11/15 05:00:14;;;;;;;25.47;20.10;;;;;;;40.34;38.12;101048.88;5095636;28;20444;-73
2022/11/15 05:05:24;;;;;;;30.17;20.03;;;;;;;40.72;37.66;101041.69;5114085;28;20435;-73
2022/11/15 05:07:50;;;;;;;26.73;19.77;;;;;;;40.65;37.29;101048.75;5113979;28;20500;-73
2022/11/15 05:10:17;;;;;;;32.97;21.63;;;;;;;40.28;38.33;101049.03;5079227;28;20445;-73
2022/11/15 05:12:43;;;;;;;30.93;21.67;;;;;;;40.40;37.99;101053.84;5095399;28;20470;-73
2022/11/15 05:15:09;;;;;;;27.47;17.83;;;;;;;40.33;38.19;101056.22;5095536;28;20862;-73
2022/11/15 05:17:35;;;;;;;23.97;19.67;;;;;;;40.45;37.50;101064.53;5095316;28;20507;-73
2022/11/15 05:20:01;;;;;;;31.03;20.57;;;;;;;40.22;37.98;101063.88;5095372;28;20528;-73
2022/11/15 05:22:27;;;;;;;23.33;19.90;;;;;;;39.95;38.54;101064.09;5095375;28;20507;-72
2022/11/15 05:24:53;;;;;;;25.07;18.93;;;;;;;40.21;38.33;101062.28;5095245;28;20815;-72
2022/11/15 05:27:19;;;;;;;25.60;19.60;;;;;;;39.97;38.66;101070.84;5095084;28;20424;-73
2022/11/15 05:29:45;;;;;;;30.37;22.00;;;;;;;40.23;38.11;101064.69;5100203;27;20518;-79
2022/11/15 05:32:12;;;;;;;27.83;21.00;;;;;;;39.88;38.76;101070.00;5095096;28;20473;-73
2022/11/15 05:34:38;;;;;;;30.87;18.17;;;;;;;39.78;39.04;101069.47;5114271;27;20422;-73
2022/11/15 05:37:05;;;;;;;36.40;22.60;;;;;;;39.70;38.96;101060.97;5093634;27;20870;-79
2022/11/15 05:39:31;;;;;;;23.03;19.30;;;;;;;40.06;38.71;101070.06;5102679;27;20510;-79
2022/11/15 05:42:09;;;;;;;27.97;19.23;;;;;;;40.14;38.33;101059.22;5112170;28;20515;-77
2022/11/15 05:44:37;;;;;;;21.93;19.30;;;;;;;40.03;38.66;101057.91;5094833;28;20427;-72
2022/11/15 05:47:08;;;;;;;32.10;18.40;;;;;;;40.18;38.24;101067.53;5106451;27;20415;-75
2022/11/15 05:49:38;;;;;;;35.40;19.93;;;;;;;40.26;37.80;101064.03;5119889;27;20436;-77
2022/11/15 05:52:07;;;;;;;26.60;20.27;;;;;;;40.31;37.53;101066.59;5070855;28;20469;-72
2022/11/15 05:54:35;;;;;;;27.67;20.17;;;;;;;39.84;38.93;101068.22;5079090;28;21031;-74
2022/11/15 05:57:02;;;;;;;30.67;21.40;;;;;;;39.95;38.69;101066.81;5085461;28;20417;-74
2022/11/15 05:59:32;;;;;;;32.00;19.17;;;;;;;40.07;38.25;101067.03;5084369;28;20429;-73
2022/11/15 06:01:59;;;;;;;31.20;21.70;;;;;;;40.18;37.96;101071.06;5088821;28;20946;-72
2022/11/15 06:04:25;;;;;;;33.00;20.00;;;;;;;39.91;38.75;101072.09;5091288;28;20806;-72
2022/11/15 06:06:51;;;;;;;33.80;22.13;;;;;;;39.94;38.46;101068.72;5089447;28;20433;-74
2022/11/15 06:09:17;;;;;;;27.20;21.40;;;;;;;40.15;38.20;101069.00;5072856;28;20405;-72
2022/11/15 06:11:43;;;;;;;29.50;22.00;;;;;;;40.35;37.79;101072.22;5071124;28;20818;-72
2022/11/15 06:14:08;;;;;;;33.17;24.37;;;;;;;40.10;38.57;101080.00;5054740;28;20422;-72
2022/11/15 06:16:34;;;;;;;38.80;29.30;;;;;;;40.21;38.22;101078.59;5072130;28;20179;-72
2022/11/15 06:19:01;;;;;;;31.63;24.03;;;;;;;40.03;38.57;101088.59;5075372;28;20448;-72
2022/11/15 06:21:29;;;;;;;36.83;27.10;;;;;;;40.28;37.89;101084.34;5086952;28;20206;-72
2022/11/15 06:23:55;;;;;;;38.30;25.17;;;;;;;40.56;37.74;101084.09;5091295;28;20416;-74
2022/11/15 06:26:21;;;;;;;34.00;26.30;;;;;;;40.69;37.14;101094.00;5082910;28;20509;-74
2022/11/15 06:28:47;;;;;;;35.60;23.03;;;;;;;40.24;38.21;101093.47;5071047;28;20495;-74
2022/11/15 06:31:13;;;;;;;38.47;22.47;;;;;;;40.55;37.48;101099.59;5070872;28;20890;-74
2022/11/15 06:33:40;;;;;;;30.53;24.13;;;;;;;40.58;37.03;101105.50;5071450;28;20927;-75
2022/11/15 06:36:09;;;;;;;32.23;23.70;;;;;;;40.19;38.13;101110.69;5068976;28;20413;-74
2022/11/15 06:38:36;;;;;;;30.90;24.70;;;;;;;40.41;37.41;101115.22;5071056;28;20397;-75
2022/11/15 06:41:04;;;;;;;33.97;22.40;;;;;;;40.45;37.92;101116.19;5071454;28;20787;-74
2022/11/15 06:43:30;;;;;;;27.50;21.33;;;;;;;39.91;38.62;101126.41;5070221;28;20426;-75
2022/11/15 06:45:59;;;;;;;29.60;23.20;;;;;;;39.91;38.64;101131.84;5070148;28;20422;-74
2022/11/15 06:48:25;;;;;;;31.20;21.10;;;;;;;40.47;38.00;101137.63;5071853;28;20390;-74
2022/11/15 06:50:57;;;;;;;32.67;21.47;;;;;;;40.21;38.40;101140.31;5055079;28;20473;-74
2022/11/15 06:53:23;;;;;;;32.67;23.87;;;;;;;40.29;38.21;101136.78;5103665;28;20436;-74
2022/11/15 06:55:49;;;;;;;29.43;21.90;;;;;;;40.47;37.89;101143.06;5094846;28;20448;-74
2022/11/15 06:58:15;;;;;;;35.73;22.17;;;;;;;40.60;37.96;101155.75;5094748;28;20425;-74
2022/11/15 07:00:42;;;;;;;35.50;22.30;;;;;;;40.12;38.25;101156.56;5094879;28;20428;-74
2022/11/15 07:03:09;;;;;;;27.93;22.50;;;;;;;40.00;38.83;101165.28;5094633;28;20436;-72
2022/11/15 07:05:35;;;;;;;27.10;20.07;;;;;;;40.44;38.24;101168.97;5094421;28;20827;-72
2022/11/15 07:08:02;;;;;;;36.43;24.23;;;;;;;40.44;37.99;101177.13;5094535;28;20424;-72
2022/11/15 07:10:28;;;;;;;30.03;22.93;;;;;;;39.91;38.63;101172.59;5094659;28;20520;-72
2022/11/15 07:12:55;;;;;;;31.93;22.90;;;;;;;39.28;40.32;101175.53;5096031;28;20409;-72
2022/11/15 07:15:24;;;;;;;34.83;23.27;;;;;;;39.97;39.13;101181.41;5094390;28;20511;-71
2022/11/15 07:17:50;;;;;;;36.77;21.97;;;;;;;40.45;38.05;101192.31;5094269;28;20440;-71
2022/11/15 07:20:16;;;;;;;35.23;24.17;;;;;;;40.67;37.60;101196.88;5096038;28;20884;-71
2022/11/15 07:22:45;;;;;;;31.93;21.53;;;;;;;40.53;38.05;101196.22;5094198;28;20846;-72
2022/11/15 07:25:11;;;;;;;34.10;21.60;;;;;;;40.92;37.92;101194.53;5094263;28;20424;-72
2022/11/15 07:27:38;;;;;;;24.83;21.40;;;;;;;40.91;37.07;101198.38;5095678;28;20433;-72
2022/11/15 07:30:04;;;;;;;30.33;21.50;;;;;;;41.07;37.08;101204.97;5094050;28;20478;-72
2022/11/15 07:32:30;;;;;;;28.87;22.37;;;;;;;40.94;37.16;101209.41;5095699;28;20452;-72
2022/11/15 07:34:56;;;;;;;30.23;22.40;;;;;;;40.60;38.15;101212.88;5095537;28;20441;-72
2022/11/15 07:37:22;;;;;;;29.40;19.90;;;;;;;41.07;37.40;101213.13;5094047;28;20432;-72
2022/11/15 07:39:48;;;;;;;29.63;22.40;;;;;;;40.73;37.82;101222.00;5093990;28;20428;-72
2022/11/15 07:44:58;;;;;;;24.30;17.93;;;;;;;41.25;37.22;101235.66;5095250;28;20901;-72
2022/11/15 07:47:24;;;;;;;23.80;19.40;;;;;;;41.13;37.39;101232.78;5093777;28;20425;-72
2022/11/15 07:49:50;;;;;;;28.87;22.43;;;;;;;41.38;36.76;101233.97;5095434;28;20449;-72
2022/11/15 07:52:16;;;;;;;27.57;22.20;;;;;;;41.45;36.88;101234.28;5096930;28;20205;-73
2022/11/15 07:54:42;;;;;;;30.97;19.60;;;;;;;41.44;36.91;101235.41;5115700;28;20397;-73
2022/11/15 07:57:09;;;;;;;32.33;16.90;;;;;;;41.04;37.57;101228.16;5096815;28;20174;-73
2022/11/15 07:59:35;;;;;;;31.27;19.43;;;;;;;40.79;37.56;101226.19;5113692;28;20272;-74
2022/11/15 08:02:02;;;;;;;30.33;17.10;;;;;;;41.08;37.16;101228.31;5096775;28;20484;-75
2022/11/15 08:04:28;;;;;;;23.67;17.03;;;;;;;41.05;37.71;101237.13;5096779;28;20408;-73
2022/11/15 08:06:54;;;;;;;23.73;15.83;;;;;;;41.29;37.37;101240.16;5096776;28;20415;-73
2022/11/15 08:09:20;;;;;;;29.30;17.60;;;;;;;41.57;36.95;101237.94;5096956;28;20186;-72
2022/11/15 08:11:46;;;;;;;21.00;14.80;;;;;;;41.41;37.16;101238.75;5096533;28;20197;-72
2022/11/15 08:14:12;;;;;;;21.90;16.23;;;;;;;41.64;36.79;101237.44;5096846;28;20789;-72
2022/11/15 08:16:38;;;;;;;20.90;16.00;;;;;;;41.86;36.68;101242.69;5115266;28;20154;-72
2022/11/15 08:19:04;;;;;;;26.20;15.50;;;;;;;41.46;37.43;101233.16;5096482;28;20851;-72
2022/11/15 08:21:30;;;;;;;28.83;17.23;;;;;;;41.53;36.72;101241.63;5096490;28;20395;-75
2022/11/15 08:23:56;;;;;;;21.97;14.37;;;;;;;41.18;37.59;101236.16;5096419;28;20487;-74
2022/11/15 08:26:22;;;;;;;22.07;15.70;;;;;;;41.39;37.37;101238.28;5096304;28;20601;-75
2022/11/15 08:28:48;;;;;;;17.10;12.70;;;;;;;41.55;37.38;101234.72;5098977;28;20279;-72
2022/11/15 08:31:19;;;;;;;19.93;11.27;;;;;;;41.56;36.84;101232.81;5114775;28;21075;-72
2022/11/15 08:33:44;;;;;;;19.10;11.63;;;;;;;41.69;36.71;101239.19;5086152;27;20169;-72
2022/11/15 08:36:16;;;;;;;15.10;12.17;;;;;;;41.91;36.26;101243.66;5116780;27;20506;-72
2022/11/15 08:38:42;;;;;;;17.10;12.60;;;;;;;42.16;35.67;101231.88;5116551;27;20464;-72
2022/11/15 08:41:36;;;;;;;15.73;10.73;;;;;;;42.26;35.76;101241.63;5116650;27;20770;-72
2022/11/15 08:44:02;;;;;;;22.80;9.77;;;;;;;42.21;35.64;101242.63;5102258;27;20415;-72
2022/11/15 08:46:28;;;;;;;16.37;10.30;;;;;;;42.32;35.32;101243.84;5116460;27;20506;-72
2022/11/15 08:48:54;;;;;;;18.60;10.57;;;;;;;42.10;35.96;101238.63;5135059;27;20525;-75
2022/11/15 08:51:20;;;;;;;14.87;9.07;;;;;;;41.82;36.05;101244.47;5112603;28;20226;-74
2022/11/15 08:53:46;;;;;;;14.60;8.87;;;;;;;41.98;35.51;101239.28;5112935;28;20987;-74
2022/11/15 08:56:14;;;;;;;21.07;9.40;;;;;;;42.17;35.34;101238.13;5112821;28;20860;-73
2022/11/15 08:58:40;;;;;;;16.13;8.90;;;;;;;42.05;35.18;101242.34;5112682;28;20416;-73
2022/11/15 09:01:14;;;;;;;22.47;8.83;;;;;;;41.80;36.06;101252.16;5112853;28;20411;-74
2022/11/15 09:03:40;;;;;;;15.03;9.03;;;;;;;41.42;35.88;101241.16;5112640;28;20404;-75
2022/11/15 09:06:07;;;;;;;16.30;9.77;;;;;;;41.47;35.50;101246.44;5112622;28;20405;-74
2022/11/15 09:08:32;;;;;;;18.10;9.03;;;;;;;41.30;37.07;101236.31;5112903;28;20451;-72
2022/11/15 09:11:02;;;;;;;12.20;8.73;;;;;;;41.68;36.18;101245.75;5112658;28;20479;-72
2022/11/15 09:13:28;;;;;;;15.77;9.40;;;;;;;41.81;35.44;101251.06;5112038;28;20234;-72
2022/11/15 09:15:58;;;;;;;14.00;8.60;;;;;;;42.08;35.47;101238.94;5112948;28;20506;-72
2022/11/15 09:18:25;;;;;;;14.03;10.33;;;;;;;41.80;35.82;101235.81;5112476;28;20420;-72
2022/11/15 09:20:51;;;;;;;19.13;11.53;;;;;;;41.77;36.14;101239.19;5112332;28;20411;-74
2022/11/15 09:23:17;;;;;;;20.37;10.77;;;;;;;42.33;35.01;101237.25;5130098;27;20785;-75
2022/11/15 09:25:43;;;;;;;14.13;8.67;;;;;;;42.08;35.43;101233.50;5129498;27;20428;-74
2022/11/15 09:28:09;;;;;;;16.30;9.07;;;;;;;42.24;35.47;101236.53;5113766;28;20785;-72
2022/11/15 09:30:35;;;;;;;16.30;8.33;;;;;;;42.40;35.00;101218.47;5095182;28;20181;-73
2022/11/15 09:33:12;;;;;;;24.87;7.97;;;;;;;41.90;35.14;101222.97;5112096;28;20204;-74
2022/11/15 09:35:39;;;;;;;20.57;10.50;;;;;;;41.73;36.39;101232.75;5112235;28;20613;-74
2022/11/15 09:38:05;;;;;;;24.13;10.50;;;;;;;42.08;35.63;101240.88;5129302;27;20447;-73
2022/11/15 09:40:36;;;;;;;15.90;8.17;;;;;;;42.17;35.75;101227.22;5129212;27;20427;-74
2022/11/15 09:43:31;;;;;;;18.20;9.10;;;;;;;41.89;35.53;101232.28;5112087;28;20416;-74
2022/11/15 09:46:16;;;;;;;11.93;7.60;;;;;;;42.09;35.23;101216.00;5112036;28;20400;-73
2022/11/15 09:49:00;;;;;;;20.80;9.77;;;;;;;42.01;35.12;101221.50;5111953;28;20415;-74
2022/11/15 09:51:30;;;;;;;20.20;7.40;;;;;;;42.06;35.01;101227.59;5111665;28;20472;-73
2022/11/15 09:54:30;;;;;;;13.80;7.43;;;;;;;42.20;34.44;101221.13;5111904;28;20404;-74
2022/11/15 09:57:16;;;;;;;14.73;8.27;;;;;;;42.26;34.58;101226.06;5113612;28;20419;-72
2022/11/15 09:59:58;;;;;;;18.60;9.03;;;;;;;42.35;34.34;101226.81;5111827;28;20422;-74
2022/11/15 10:02:27;;;;;;;15.07;7.57;;;;;;;42.42;34.59;101223.59;5111804;28;20408;-74
2022/11/15 10:04:54;;;;;;;14.77;9.13;;;;;;;42.56;34.42;101220.63;5111647;28;20470;-74
2022/11/15 10:07:56;;;;;;;14.83;7.73;;;;;;;42.68;33.93;101225.41;5111631;28;20502;-73
2022/11/15 10:10:41;;;;;;;14.23;8.90;;;;;;;42.73;34.38;101220.56;5111702;28;20412;-73
2022/11/15 10:13:22;;;;;;;24.13;9.90;;;;;;;42.79;34.17;101223.88;5113329;28;20478;-73
2022/11/15 10:15:49;;;;;;;14.07;7.53;;;;;;;42.83;34.14;101222.88;5113294;28;20430;-73
2022/11/15 10:18:20;;;;;;;68.10;46.30;;;;;;;42.68;34.27;101209.03;5113307;28;20472;-74
2022/11/15 10:20:50;;;;;;;78.10;61.80;;;;;;;42.78;34.55;101208.63;5128771;28;20974;-71
2022/11/15 10:23:20;;;;;;;42.43;28.77;;;;;;;42.95;33.73;101203.03;5126235;27;20503;-71
2022/11/15 10:25:46;;;;;;;52.30;32.73;;;;;;;42.45;34.95;101189.41;5115755;28;20500;-71
2022/11/15 10:28:27;;;;;;;25.43;13.90;;;;;;;43.07;33.88;101188.69;5130861;27;20534;-71
2022/11/15 10:30:55;;;;;;;17.90;11.10;;;;;;;42.94;34.25;101185.06;5095261;28;20456;-71
2022/11/15 10:33:33;;;;;;;22.87;13.83;;;;;;;42.72;33.72;101188.91;5078527;28;20419;-71
2022/11/15 10:36:08;;;;;;;28.20;20.80;;;;;;;42.76;34.01;101189.88;5095251;28;20444;-73
2022/11/15 10:39:03;;;;;;;36.23;20.60;;;;;;;42.55;33.92;101183.59;5095132;28;20423;-73
2022/11/15 10:41:34;;;;;;;18.40;11.30;;;;;;;42.79;34.01;101182.97;5093818;28;20416;-72
2022/11/15 10:44:11;;;;;;;19.83;12.77;;;;;;;42.75;34.21;101190.22;5096795;28;20396;-73
2022/11/15 10:46:42;;;;;;;16.93;9.03;;;;;;;42.78;33.59;101184.88;5094892;28;20802;-72
2022/11/15 10:49:21;;;;;;;29.90;10.00;;;;;;;42.44;34.09;101174.19;5095022;28;20468;-73
2022/11/15 10:51:56;;;;;;;26.00;8.90;;;;;;;42.79;33.67;101180.22;5114174;28;20498;-73
2022/11/15 10:54:29;;;;;;;18.50;8.70;;;;;;;42.74;33.86;101169.50;5098302;28;20472;-76
2022/11/15 10:56:59;;;;;;;15.80;8.83;;;;;;;42.77;34.05;101174.28;5098151;28;20468;-75
2022/11/15 10:59:37;;;;;;;32.53;10.73;;;;;;;42.83;33.88;101167.50;5098227;28;20423;-75
2022/11/15 11:02:26;;;;;;;15.60;8.53;;;;;;;42.53;34.02;101156.63;5097979;28;20427;-75
2022/11/15 11:04:52;;;;;;;18.07;8.93;;;;;;;42.68;34.53;101152.53;5116623;28;20810;-75
2022/11/15 11:07:36;;;;;;;17.43;8.43;;;;;;;42.69;34.38;101150.63;5104485;27;20486;-73
2022/11/15 11:10:17;;;;;;;18.83;8.63;;;;;;;42.63;34.72;101147.28;5136890;27;20439;-73
2022/11/15 11:12:43;;;;;;;16.00;9.80;;;;;;;42.38;35.37;101125.28;5118232;27;20450;-73
2022/11/15 11:15:12;;;;;;;15.43;9.43;;;;;;;42.39;35.76;101115.97;5118229;27;20472;-73
2022/11/15 11:18:00;;;;;;;13.77;8.93;;;;;;;42.76;34.56;101118.94;5101450;27;20410;-73
2022/11/15 11:20:38;;;;;;;12.20;9.17;;;;;;;42.79;34.72;101115.53;5136939;27;20414;-73
2022/11/15 11:23:16;;;;;;;11.33;8.17;;;;;;;42.72;34.40;101117.19;5117931;27;20438;-73
2022/11/15 11:25:50;;;;;;;15.97;10.10;;;;;;;42.84;34.27;101112.59;5117972;27;20501;-73
2022/11/15 11:28:40;;;;;;;13.80;10.80;;;;;;;42.83;33.85;101107.47;5117830;27;20443;-73
2022/11/15 11:31:33;;;;;;;19.73;9.47;;;;;;;42.83;33.65;101113.72;5102525;27;20543;-72
2022/11/15 11:34:20;;;;;;;23.00;12.20;;;;;;;42.87;33.61;101109.19;5100870;27;20514;-73
2022/11/15 11:37:19;;;;;;;21.03;11.03;;;;;;;42.98;33.93;101108.78;5117370;27;20418;-73
2022/11/15 11:40:00;;;;;;;21.23;9.70;;;;;;;43.00;34.17;101101.09;5100392;27;20426;-75
2022/11/15 11:42:59;;;;;;;18.90;10.83;;;;;;;43.32;33.30;101105.72;5117528;27;20521;-75